sensor_id;sensor_type;location;lat;lon;timestamp;P1;durP1;ratioP1;P2;durP2;ratioP2
17604;SDS011;8921;50.964;6.800;2023-02-15T00:02:05;41.20;;;23.47;;
17604;SDS011;8921;50.964;6.800;2023-02-15T00:04:33;43.13;;;25.23;;
17604;SDS011;8921;50.964;6.800;2023-02-15T00:07:14;43.20;;;24.83;;
17604;SDS011;8921;50.964;6.800;2023-02-15T00:09:42;45.40;;;25.50;;
17604;SDS011;8921;50.964;6.800;2023-02-15T00:12:10;50.07;;;26.07;;
17604;SDS011;8921;50.964;6.800;2023-02-15T00:14:38;43.80;;;26.50;;
17604;SDS011;8921;50.964;6.800;2023-02-15T00:17:07;47.60;;;27.00;;
17604;SDS011;8921;50.964;6.800;2023-02-15T00:19:35;46.77;;;24.60;;
17604;SDS011;8921;50.964;6.800;2023-02-15T00:22:03;46.50;;;27.43;;
17604;SDS011;8921;50.964;6.800;2023-02-15T00:24:32;46.00;;;23.03;;
17604;SDS011;8921;50.964;6.800;2023-02-15T00:27:00;47.23;;;27.77;;
17604;SDS011;8921;50.964;6.800;2023-02-15T00:29:28;47.80;;;26.93;;
17604;SDS011;8921;50.964;6.800;2023-02-15T00:31:57;57.03;;;28.50;;
17604;SDS011;8921;50.964;6.800;2023-02-15T00:34:25;42.83;;;26.80;;
17604;SDS011;8921;50.964;6.800;2023-02-15T00:36:53;46.77;;;26.47;;
17604;SDS011;8921;50.964;6.800;2023-02-15T00:39:22;42.87;;;25.13;;
17604;SDS011;8921;50.964;6.800;2023-02-15T00:41:50;50.07;;;27.10;;
17604;SDS011;8921;50.964;6.800;2023-02-15T00:44:18;54.40;;;28.30;;
17604;SDS011;8921;50.964;6.800;2023-02-15T00:46:47;50.50;;;25.47;;
17604;SDS011;8921;50.964;6.800;2023-02-15T00:49:15;51.67;;;27.10;;
17604;SDS011;8921;50.964;6.800;2023-02-15T00:51:43;48.40;;;26.90;;
17604;SDS011;8921;50.964;6.800;2023-02-15T00:54:12;48.40;;;25.80;;
17604;SDS011;8921;50.964;6.800;2023-02-15T00:56:40;46.27;;;27.73;;
17604;SDS011;8921;50.964;6.800;2023-02-15T00:59:08;50.37;;;27.23;;
17604;SDS011;8921;50.964;6.800;2023-02-15T01:01:36;42.37;;;23.63;;
17604;SDS011;8921;50.964;6.800;2023-02-15T01:04:05;45.57;;;26.60;;
17604;SDS011;8921;50.964;6.800;2023-02-15T01:06:33;43.70;;;26.73;;
17604;SDS011;8921;50.964;6.800;2023-02-15T01:09:01;44.53;;;24.57;;
17604;SDS011;8921;50.964;6.800;2023-02-15T01:11:30;44.80;;;25.30;;
17604;SDS011;8921;50.964;6.800;2023-02-15T01:13:58;48.63;;;25.73;;
17604;SDS011;8921;50.964;6.800;2023-02-15T01:16:27;48.93;;;27.13;;
17604;SDS011;8921;50.964;6.800;2023-02-15T01:18:55;51.13;;;25.03;;
17604;SDS011;8921;50.964;6.800;2023-02-15T01:21:24;43.83;;;25.77;;
17604;SDS011;8921;50.964;6.800;2023-02-15T01:23:51;51.43;;;27.80;;
17604;SDS011;8921;50.964;6.800;2023-02-15T01:26:20;47.50;;;26.03;;
17604;SDS011;8921;50.964;6.800;2023-02-15T01:28:48;52.87;;;25.87;;
17604;SDS011;8921;50.964;6.800;2023-02-15T01:31:17;50.33;;;26.83;;
17604;SDS011;8921;50.964;6.800;2023-02-15T01:33:48;47.83;;;27.17;;
17604;SDS011;8921;50.964;6.800;2023-02-15T01:36:16;47.70;;;27.23;;
17604;SDS011;8921;50.964;6.800;2023-02-15T01:38:44;43.83;;;25.17;;
17604;SDS011;8921;50.964;6.800;2023-02-15T01:41:13;54.10;;;27.70;;
17604;SDS011;8921;50.964;6.800;2023-02-15T01:43:47;43.67;;;26.10;;
17604;SDS011;8921;50.964;6.800;2023-02-15T01:46:15;47.13;;;26.03;;
17604;SDS011;8921;50.964;6.800;2023-02-15T01:48:44;44.53;;;25.90;;
17604;SDS011;8921;50.964;6.800;2023-02-15T01:51:12;46.47;;;26.33;;
17604;SDS011;8921;50.964;6.800;2023-02-15T01:53:42;44.23;;;24.03;;
17604;SDS011;8921;50.964;6.800;2023-02-15T01:56:13;50.17;;;27.37;;
17604;SDS011;8921;50.964;6.800;2023-02-15T01:58:39;49.70;;;27.57;;
17604;SDS011;8921;50.964;6.800;2023-02-15T02:01:08;48.97;;;25.90;;
17604;SDS011;8921;50.964;6.800;2023-02-15T02:03:38;46.50;;;25.00;;
17604;SDS011;8921;50.964;6.800;2023-02-15T02:06:04;45.73;;;25.37;;
17604;SDS011;8921;50.964;6.800;2023-02-15T02:08:32;42.43;;;22.57;;
17604;SDS011;8921;50.964;6.800;2023-02-15T02:11:01;43.97;;;24.83;;
17604;SDS011;8921;50.964;6.800;2023-02-15T02:13:29;47.10;;;25.30;;
17604;SDS011;8921;50.964;6.800;2023-02-15T02:16:00;48.43;;;28.07;;
17604;SDS011;8921;50.964;6.800;2023-02-15T02:21:26;50.23;;;27.20;;
17604;SDS011;8921;50.964;6.800;2023-02-15T02:29:19;49.30;;;27.80;;
17604;SDS011;8921;50.964;6.800;2023-02-15T02:37:24;45.10;;;26.83;;
17604;SDS011;8921;50.964;6.800;2023-02-15T02:42:42;48.43;;;25.50;;
17604;SDS011;8921;50.964;6.800;2023-02-15T02:45:16;54.33;;;27.00;;
17604;SDS011;8921;50.964;6.800;2023-02-15T02:48:00;44.93;;;26.20;;
17604;SDS011;8921;50.964;6.800;2023-02-15T02:50:28;49.53;;;24.73;;
17604;SDS011;8921;50.964;6.800;2023-02-15T02:52:56;49.13;;;27.30;;
17604;SDS011;8921;50.964;6.800;2023-02-15T02:55:30;48.43;;;26.00;;
17604;SDS011;8921;50.964;6.800;2023-02-15T02:58:20;44.60;;;22.87;;
17604;SDS011;8921;50.964;6.800;2023-02-15T03:00:57;42.93;;;23.93;;
17604;SDS011;8921;50.964;6.800;2023-02-15T03:03:29;53.30;;;27.07;;
17604;SDS011;8921;50.964;6.800;2023-02-15T03:05:59;47.20;;;26.73;;
17604;SDS011;8921;50.964;6.800;2023-02-15T03:08:29;44.77;;;23.73;;
17604;SDS011;8921;50.964;6.800;2023-02-15T03:10:55;48.47;;;24.63;;
17604;SDS011;8921;50.964;6.800;2023-02-15T03:13:23;47.53;;;25.43;;
17604;SDS011;8921;50.964;6.800;2023-02-15T03:15:52;39.53;;;23.47;;
17604;SDS011;8921;50.964;6.800;2023-02-15T03:18:43;45.20;;;26.83;;
17604;SDS011;8921;50.964;6.800;2023-02-15T03:21:09;49.13;;;26.27;;
17604;SDS011;8921;50.964;6.800;2023-02-15T03:23:37;47.10;;;24.20;;
17604;SDS011;8921;50.964;6.800;2023-02-15T03:26:06;48.10;;;26.60;;
17604;SDS011;8921;50.964;6.800;2023-02-15T03:28:40;43.60;;;24.27;;
17604;SDS011;8921;50.964;6.800;2023-02-15T03:31:05;47.23;;;25.03;;
17604;SDS011;8921;50.964;6.800;2023-02-15T03:33:34;50.93;;;26.10;;
17604;SDS011;8921;50.964;6.800;2023-02-15T03:36:04;46.60;;;25.87;;
17604;SDS011;8921;50.964;6.800;2023-02-15T03:38:33;50.87;;;27.47;;
17604;SDS011;8921;50.964;6.800;2023-02-15T03:41:04;57.67;;;28.93;;
17604;SDS011;8921;50.964;6.800;2023-02-15T03:43:49;51.73;;;26.43;;
17604;SDS011;8921;50.964;6.800;2023-02-15T03:46:31;54.77;;;27.43;;
17604;SDS011;8921;50.964;6.800;2023-02-15T03:49:09;49.63;;;25.77;;
17604;SDS011;8921;50.964;6.800;2023-02-15T03:51:37;49.83;;;24.40;;
17604;SDS011;8921;50.964;6.800;2023-02-15T03:54:18;57.43;;;28.30;;
17604;SDS011;8921;50.964;6.800;2023-02-15T03:57:13;48.90;;;25.40;;
17604;SDS011;8921;50.964;6.800;2023-02-15T03:59:57;54.03;;;26.50;;
17604;SDS011;8921;50.964;6.800;2023-02-15T04:02:55;47.70;;;26.10;;
17604;SDS011;8921;50.964;6.800;2023-02-15T04:05:20;45.60;;;26.97;;
17604;SDS011;8921;50.964;6.800;2023-02-15T04:07:48;52.90;;;27.63;;
17604;SDS011;8921;50.964;6.800;2023-02-15T04:10:16;45.63;;;23.67;;
17604;SDS011;8921;50.964;6.800;2023-02-15T04:13:03;51.70;;;24.40;;
17604;SDS011;8921;50.964;6.800;2023-02-15T04:15:31;47.50;;;24.17;;
17604;SDS011;8921;50.964;6.800;2023-02-15T04:18:18;51.20;;;24.70;;
17604;SDS011;8921;50.964;6.800;2023-02-15T04:20:47;48.50;;;26.10;;
17604;SDS011;8921;50.964;6.800;2023-02-15T04:23:33;47.10;;;24.43;;
17604;SDS011;8921;50.964;6.800;2023-02-15T04:26:20;51.37;;;25.50;;
17604;SDS011;8921;50.964;6.800;2023-02-15T04:28:48;48.60;;;25.23;;
17604;SDS011;8921;50.964;6.800;2023-02-15T04:31:17;45.40;;;23.80;;
17604;SDS011;8921;50.964;6.800;2023-02-15T04:33:45;55.10;;;26.40;;
17604;SDS011;8921;50.964;6.800;2023-02-15T04:36:13;49.07;;;27.27;;
17604;SDS011;8921;50.964;6.800;2023-02-15T04:38:42;47.20;;;23.37;;
17604;SDS011;8921;50.964;6.800;2023-02-15T04:41:10;50.37;;;27.10;;
17604;SDS011;8921;50.964;6.800;2023-02-15T04:43:38;48.10;;;26.67;;
17604;SDS011;8921;50.964;6.800;2023-02-15T04:46:06;51.57;;;27.20;;
17604;SDS011;8921;50.964;6.800;2023-02-15T04:48:35;50.77;;;25.07;;
17604;SDS011;8921;50.964;6.800;2023-02-15T04:51:06;52.20;;;25.87;;
17604;SDS011;8921;50.964;6.800;2023-02-15T04:53:34;48.73;;;25.27;;
17604;SDS011;8921;50.964;6.800;2023-02-15T04:56:03;45.60;;;24.60;;
17604;SDS011;8921;50.964;6.800;2023-02-15T04:58:31;54.83;;;28.10;;
17604;SDS011;8921;50.964;6.800;2023-02-15T05:00:59;47.80;;;24.67;;
17604;SDS011;8921;50.964;6.800;2023-02-15T05:03:28;59.80;;;26.17;;
17604;SDS011;8921;50.964;6.800;2023-02-15T05:05:56;51.23;;;25.20;;
17604;SDS011;8921;50.964;6.800;2023-02-15T05:08:24;50.93;;;24.10;;
17604;SDS011;8921;50.964;6.800;2023-02-15T05:10:52;49.43;;;25.40;;
17604;SDS011;8921;50.964;6.800;2023-02-15T05:13:21;46.83;;;24.63;;
17604;SDS011;8921;50.964;6.800;2023-02-15T05:15:49;48.50;;;26.10;;
17604;SDS011;8921;50.964;6.800;2023-02-15T05:18:18;47.40;;;23.47;;
17604;SDS011;8921;50.964;6.800;2023-02-15T05:20:46;43.13;;;23.73;;
17604;SDS011;8921;50.964;6.800;2023-02-15T05:23:14;44.17;;;25.10;;
17604;SDS011;8921;50.964;6.800;2023-02-15T05:25:46;51.73;;;25.93;;
17604;SDS011;8921;50.964;6.800;2023-02-15T05:28:29;45.43;;;21.60;;
17604;SDS011;8921;50.964;6.800;2023-02-15T05:31:00;43.87;;;23.53;;
17604;SDS011;8921;50.964;6.800;2023-02-15T05:33:25;52.70;;;24.90;;
17604;SDS011;8921;50.964;6.800;2023-02-15T05:35:54;41.83;;;23.73;;
17604;SDS011;8921;50.964;6.800;2023-02-15T05:38:22;48.37;;;26.33;;
17604;SDS011;8921;50.964;6.800;2023-02-15T05:40:51;51.03;;;25.00;;
17604;SDS011;8921;50.964;6.800;2023-02-15T05:43:19;42.70;;;22.90;;
17604;SDS011;8921;50.964;6.800;2023-02-15T05:45:48;47.27;;;25.63;;
17604;SDS011;8921;50.964;6.800;2023-02-15T05:48:16;46.97;;;21.10;;
17604;SDS011;8921;50.964;6.800;2023-02-15T05:50:43;47.13;;;24.30;;
17604;SDS011;8921;50.964;6.800;2023-02-15T05:53:12;45.80;;;22.50;;
17604;SDS011;8921;50.964;6.800;2023-02-15T05:55:40;44.73;;;22.30;;
17604;SDS011;8921;50.964;6.800;2023-02-15T05:58:08;45.70;;;22.70;;
17604;SDS011;8921;50.964;6.800;2023-02-15T06:00:37;51.90;;;24.80;;
17604;SDS011;8921;50.964;6.800;2023-02-15T06:03:05;43.30;;;22.77;;
17604;SDS011;8921;50.964;6.800;2023-02-15T06:05:33;48.43;;;23.23;;
17604;SDS011;8921;50.964;6.800;2023-02-15T06:08:02;45.70;;;23.47;;
17604;SDS011;8921;50.964;6.800;2023-02-15T06:10:30;41.10;;;22.23;;
17604;SDS011;8921;50.964;6.800;2023-02-15T06:12:58;42.50;;;22.37;;
17604;SDS011;8921;50.964;6.800;2023-02-15T06:15:26;44.07;;;23.00;;
17604;SDS011;8921;50.964;6.800;2023-02-15T06:17:55;44.87;;;23.97;;
17604;SDS011;8921;50.964;6.800;2023-02-15T06:20:23;38.63;;;22.90;;
17604;SDS011;8921;50.964;6.800;2023-02-15T06:22:51;47.93;;;23.97;;
17604;SDS011;8921;50.964;6.800;2023-02-15T06:25:20;47.70;;;24.10;;
17604;SDS011;8921;50.964;6.800;2023-02-15T06:27:48;49.77;;;24.83;;
17604;SDS011;8921;50.964;6.800;2023-02-15T06:30:16;37.90;;;22.50;;
17604;SDS011;8921;50.964;6.800;2023-02-15T06:32:45;45.87;;;23.20;;
17604;SDS011;8921;50.964;6.800;2023-02-15T06:35:13;44.93;;;22.10;;
17604;SDS011;8921;50.964;6.800;2023-02-15T06:37:41;45.57;;;24.03;;
17604;SDS011;8921;50.964;6.800;2023-02-15T06:40:10;40.57;;;22.27;;
17604;SDS011;8921;50.964;6.800;2023-02-15T06:42:38;38.53;;;21.43;;
17604;SDS011;8921;50.964;6.800;2023-02-15T06:45:07;45.93;;;24.53;;
17604;SDS011;8921;50.964;6.800;2023-02-15T06:47:35;40.80;;;21.00;;
17604;SDS011;8921;50.964;6.800;2023-02-15T06:50:04;38.17;;;19.80;;
17604;SDS011;8921;50.964;6.800;2023-02-15T06:52:32;42.00;;;22.27;;
17604;SDS011;8921;50.964;6.800;2023-02-15T06:55:00;40.63;;;21.57;;
17604;SDS011;8921;50.964;6.800;2023-02-15T06:57:31;43.37;;;22.13;;
17604;SDS011;8921;50.964;6.800;2023-02-15T06:59:57;49.60;;;21.67;;
17604;SDS011;8921;50.964;6.800;2023-02-15T07:02:26;41.63;;;21.77;;
17604;SDS011;8921;50.964;6.800;2023-02-15T07:04:57;45.10;;;24.93;;
17604;SDS011;8921;50.964;6.800;2023-02-15T07:07:25;44.73;;;22.00;;
17604;SDS011;8921;50.964;6.800;2023-02-15T07:09:53;42.50;;;22.47;;
17604;SDS011;8921;50.964;6.800;2023-02-15T07:12:22;37.70;;;21.77;;
17604;SDS011;8921;50.964;6.800;2023-02-15T07:15:08;45.30;;;23.17;;
17604;SDS011;8921;50.964;6.800;2023-02-15T07:17:37;44.50;;;21.60;;
17604;SDS011;8921;50.964;6.800;2023-02-15T07:20:10;38.90;;;20.27;;
17604;SDS011;8921;50.964;6.800;2023-02-15T07:22:33;40.13;;;21.27;;
17604;SDS011;8921;50.964;6.800;2023-02-15T07:25:05;42.50;;;21.33;;
17604;SDS011;8921;50.964;6.800;2023-02-15T07:27:30;43.43;;;22.63;;
17604;SDS011;8921;50.964;6.800;2023-02-15T07:29:59;40.83;;;23.07;;
17604;SDS011;8921;50.964;6.800;2023-02-15T07:32:27;42.23;;;22.30;;
17604;SDS011;8921;50.964;6.800;2023-02-15T07:34:55;37.33;;;20.53;;
17604;SDS011;8921;50.964;6.800;2023-02-15T07:37:23;34.00;;;19.70;;
17604;SDS011;8921;50.964;6.800;2023-02-15T07:39:51;33.33;;;19.83;;
17604;SDS011;8921;50.964;6.800;2023-02-15T07:42:20;33.67;;;18.27;;
17604;SDS011;8921;50.964;6.800;2023-02-15T07:44:48;34.27;;;19.67;;
17604;SDS011;8921;50.964;6.800;2023-02-15T07:47:16;34.00;;;20.03;;
17604;SDS011;8921;50.964;6.800;2023-02-15T07:49:45;31.67;;;18.70;;
17604;SDS011;8921;50.964;6.800;2023-02-15T07:52:13;34.20;;;20.03;;
17604;SDS011;8921;50.964;6.800;2023-02-15T07:54:41;30.03;;;18.10;;
17604;SDS011;8921;50.964;6.800;2023-02-15T07:57:09;32.00;;;19.77;;
17604;SDS011;8921;50.964;6.800;2023-02-15T07:59:38;31.60;;;19.27;;
17604;SDS011;8921;50.964;6.800;2023-02-15T08:02:12;32.37;;;19.20;;
17604;SDS011;8921;50.964;6.800;2023-02-15T08:04:40;35.80;;;19.63;;
17604;SDS011;8921;50.964;6.800;2023-02-15T08:07:08;29.73;;;20.97;;
17604;SDS011;8921;50.964;6.800;2023-02-15T08:09:37;34.13;;;18.40;;
17604;SDS011;8921;50.964;6.800;2023-02-15T08:12:05;33.53;;;18.63;;
17604;SDS011;8921;50.964;6.800;2023-02-15T08:14:33;32.73;;;19.03;;
17604;SDS011;8921;50.964;6.800;2023-02-15T08:17:02;39.60;;;23.07;;
17604;SDS011;8921;50.964;6.800;2023-02-15T08:19:31;26.23;;;17.50;;
17604;SDS011;8921;50.964;6.800;2023-02-15T08:21:59;29.70;;;16.63;;
17604;SDS011;8921;50.964;6.800;2023-02-15T08:24:28;27.63;;;17.30;;
17604;SDS011;8921;50.964;6.800;2023-02-15T08:26:55;27.23;;;15.50;;
17604;SDS011;8921;50.964;6.800;2023-02-15T08:29:24;32.37;;;15.70;;
17604;SDS011;8921;50.964;6.800;2023-02-15T08:31:55;25.83;;;15.30;;
17604;SDS011;8921;50.964;6.800;2023-02-15T08:34:23;28.20;;;17.10;;
17604;SDS011;8921;50.964;6.800;2023-02-15T08:36:51;27.00;;;16.73;;
17604;SDS011;8921;50.964;6.800;2023-02-15T08:39:19;25.97;;;15.60;;
17604;SDS011;8921;50.964;6.800;2023-02-15T08:41:48;29.83;;;16.90;;
17604;SDS011;8921;50.964;6.800;2023-02-15T08:44:16;27.93;;;16.80;;
17604;SDS011;8921;50.964;6.800;2023-02-15T08:46:45;26.70;;;15.17;;
17604;SDS011;8921;50.964;6.800;2023-02-15T08:49:14;27.70;;;15.73;;
17604;SDS011;8921;50.964;6.800;2023-02-15T08:51:41;23.37;;;16.53;;
17604;SDS011;8921;50.964;6.800;2023-02-15T08:54:11;26.40;;;15.57;;
17604;SDS011;8921;50.964;6.800;2023-02-15T08:56:38;31.17;;;16.83;;
17604;SDS011;8921;50.964;6.800;2023-02-15T08:59:06;29.83;;;17.97;;
17604;SDS011;8921;50.964;6.800;2023-02-15T09:01:34;28.87;;;17.27;;
17604;SDS011;8921;50.964;6.800;2023-02-15T09:04:05;26.33;;;15.37;;
17604;SDS011;8921;50.964;6.800;2023-02-15T09:06:34;26.33;;;16.83;;
17604;SDS011;8921;50.964;6.800;2023-02-15T09:09:02;26.80;;;16.30;;
17604;SDS011;8921;50.964;6.800;2023-02-15T09:11:32;30.17;;;15.47;;
17604;SDS011;8921;50.964;6.800;2023-02-15T09:13:59;25.60;;;16.13;;
17604;SDS011;8921;50.964;6.800;2023-02-15T09:16:28;30.30;;;16.47;;
17604;SDS011;8921;50.964;6.800;2023-02-15T09:18:55;31.70;;;17.27;;
17604;SDS011;8921;50.964;6.800;2023-02-15T09:21:30;31.90;;;17.47;;
17604;SDS011;8921;50.964;6.800;2023-02-15T09:23:59;24.00;;;13.00;;
17604;SDS011;8921;50.964;6.800;2023-02-15T09:26:26;26.73;;;15.30;;
17604;SDS011;8921;50.964;6.800;2023-02-15T09:28:55;25.93;;;13.83;;
17604;SDS011;8921;50.964;6.800;2023-02-15T09:31:26;25.40;;;14.80;;
17604;SDS011;8921;50.964;6.800;2023-02-15T09:33:51;24.30;;;14.37;;
17604;SDS011;8921;50.964;6.800;2023-02-15T09:38:57;26.43;;;14.83;;
17604;SDS011;8921;50.964;6.800;2023-02-15T09:41:29;26.73;;;14.10;;
17604;SDS011;8921;50.964;6.800;2023-02-15T09:47:14;26.97;;;14.27;;
17604;SDS011;8921;50.964;6.800;2023-02-15T09:52:32;22.93;;;13.70;;
17604;SDS011;8921;50.964;6.800;2023-02-15T09:55:48;23.80;;;14.90;;
17604;SDS011;8921;50.964;6.800;2023-02-15T09:58:06;25.63;;;14.07;;
17604;SDS011;8921;50.964;6.800;2023-02-15T10:03:18;22.83;;;14.27;;
17604;SDS011;8921;50.964;6.800;2023-02-15T10:19:26;24.40;;;13.70;;
17604;SDS011;8921;50.964;6.800;2023-02-15T10:22:05;26.17;;;14.13;;
17604;SDS011;8921;50.964;6.800;2023-02-15T10:27:21;21.80;;;12.73;;
17604;SDS011;8921;50.964;6.800;2023-02-15T10:32:38;21.60;;;14.00;;
17604;SDS011;8921;50.964;6.800;2023-02-15T10:35:10;23.00;;;14.20;;
17604;SDS011;8921;50.964;6.800;2023-02-15T10:40:20;26.00;;;14.83;;
17604;SDS011;8921;50.964;6.800;2023-02-15T10:42:56;23.30;;;15.37;;
17604;SDS011;8921;50.964;6.800;2023-02-15T10:45:34;22.27;;;13.43;;
17604;SDS011;8921;50.964;6.800;2023-02-15T10:50:50;22.40;;;13.87;;
17604;SDS011;8921;50.964;6.800;2023-02-15T10:56:20;20.90;;;13.40;;
17604;SDS011;8921;50.964;6.800;2023-02-15T10:58:51;24.57;;;13.90;;
17604;SDS011;8921;50.964;6.800;2023-02-15T11:01:34;23.53;;;13.80;;
17604;SDS011;8921;50.964;6.800;2023-02-15T11:04:05;30.50;;;14.80;;
17604;SDS011;8921;50.964;6.800;2023-02-15T11:06:36;23.10;;;13.90;;
17604;SDS011;8921;50.964;6.800;2023-02-15T11:09:05;22.47;;;13.33;;
17604;SDS011;8921;50.964;6.800;2023-02-15T11:11:34;21.73;;;13.20;;
17604;SDS011;8921;50.964;6.800;2023-02-15T11:14:02;21.80;;;12.93;;
17604;SDS011;8921;50.964;6.800;2023-02-15T11:16:39;28.23;;;14.67;;
17604;SDS011;8921;50.964;6.800;2023-02-15T11:21:42;24.17;;;13.30;;
17604;SDS011;8921;50.964;6.800;2023-02-15T11:24:09;21.83;;;12.90;;
17604;SDS011;8921;50.964;6.800;2023-02-15T11:29:25;30.73;;;15.90;;
17604;SDS011;8921;50.964;6.800;2023-02-15T11:31:59;21.73;;;12.70;;
17604;SDS011;8921;50.964;6.800;2023-02-15T11:34:33;22.10;;;13.63;;
17604;SDS011;8921;50.964;6.800;2023-02-15T11:37:01;23.97;;;13.37;;
17604;SDS011;8921;50.964;6.800;2023-02-15T11:39:28;27.30;;;14.10;;
17604;SDS011;8921;50.964;6.800;2023-02-15T11:41:57;23.37;;;13.67;;
17604;SDS011;8921;50.964;6.800;2023-02-15T11:44:26;19.93;;;13.33;;
17604;SDS011;8921;50.964;6.800;2023-02-15T11:46:53;21.27;;;13.50;;
17604;SDS011;8921;50.964;6.800;2023-02-15T11:49:29;21.53;;;13.47;;
17604;SDS011;8921;50.964;6.800;2023-02-15T11:51:55;23.40;;;13.73;;
17604;SDS011;8921;50.964;6.800;2023-02-15T11:54:26;23.10;;;12.80;;
17604;SDS011;8921;50.964;6.800;2023-02-15T11:56:52;22.93;;;13.80;;
17604;SDS011;8921;50.964;6.800;2023-02-15T11:59:27;22.77;;;13.30;;
17604;SDS011;8921;50.964;6.800;2023-02-15T12:01:51;29.10;;;15.80;;
17604;SDS011;8921;50.964;6.800;2023-02-15T12:06:49;21.47;;;12.77;;
17604;SDS011;8921;50.964;6.800;2023-02-15T12:14:50;26.47;;;13.20;;
17604;SDS011;8921;50.964;6.800;2023-02-15T12:17:18;21.60;;;12.50;;
17604;SDS011;8921;50.964;6.800;2023-02-15T12:19:46;23.50;;;14.30;;
17604;SDS011;8921;50.964;6.800;2023-02-15T12:22:19;20.47;;;12.73;;
17604;SDS011;8921;50.964;6.800;2023-02-15T12:24:48;22.80;;;12.87;;
17604;SDS011;8921;50.964;6.800;2023-02-15T12:27:17;24.50;;;13.67;;
17604;SDS011;8921;50.964;6.800;2023-02-15T12:29:49;22.03;;;12.40;;
17604;SDS011;8921;50.964;6.800;2023-02-15T12:32:18;27.30;;;13.57;;
17604;SDS011;8921;50.964;6.800;2023-02-15T12:34:47;21.40;;;12.57;;
17604;SDS011;8921;50.964;6.800;2023-02-15T12:37:17;24.30;;;13.00;;
17604;SDS011;8921;50.964;6.800;2023-02-15T12:42:41;22.90;;;13.70;;
17604;SDS011;8921;50.964;6.800;2023-02-15T12:47:50;21.33;;;12.27;;
17604;SDS011;8921;50.964;6.800;2023-02-15T12:50:23;25.53;;;13.17;;
17604;SDS011;8921;50.964;6.800;2023-02-15T12:52:51;19.30;;;12.57;;
17604;SDS011;8921;50.964;6.800;2023-02-15T12:57:47;25.03;;;12.40;;
17604;SDS011;8921;50.964;6.800;2023-02-15T13:02:48;19.27;;;11.77;;
17604;SDS011;8921;50.964;6.800;2023-02-15T13:08:03;21.27;;;13.27;;
17604;SDS011;8921;50.964;6.800;2023-02-15T13:10:56;20.10;;;12.47;;
17604;SDS011;8921;50.964;6.800;2023-02-15T13:13:26;19.10;;;13.10;;
17604;SDS011;8921;50.964;6.800;2023-02-15T13:15:55;21.03;;;12.43;;
17604;SDS011;8921;50.964;6.800;2023-02-15T13:18:31;23.07;;;13.63;;
17604;SDS011;8921;50.964;6.800;2023-02-15T13:21:00;21.07;;;13.23;;
17604;SDS011;8921;50.964;6.800;2023-02-15T13:23:28;29.70;;;14.07;;
17604;SDS011;8921;50.964;6.800;2023-02-15T13:25:56;23.70;;;12.97;;
17604;SDS011;8921;50.964;6.800;2023-02-15T13:28:31;23.63;;;13.10;;
17604;SDS011;8921;50.964;6.800;2023-02-15T13:30:54;21.33;;;12.67;;
17604;SDS011;8921;50.964;6.800;2023-02-15T13:41:00;21.43;;;12.60;;
17604;SDS011;8921;50.964;6.800;2023-02-15T13:43:35;21.63;;;13.30;;
17604;SDS011;8921;50.964;6.800;2023-02-15T13:46:48;20.30;;;13.30;;
17604;SDS011;8921;50.964;6.800;2023-02-15T13:51:21;22.30;;;13.37;;
17604;SDS011;8921;50.964;6.800;2023-02-15T13:56:40;20.50;;;12.43;;
17604;SDS011;8921;50.964;6.800;2023-02-15T13:59:07;20.83;;;9.73;;
17604;SDS011;8921;50.964;6.800;2023-02-15T14:01:51;23.80;;;12.47;;
17604;SDS011;8921;50.964;6.800;2023-02-15T14:04:35;18.90;;;11.17;;
17604;SDS011;8921;50.964;6.800;2023-02-15T14:12:40;17.40;;;10.60;;
17604;SDS011;8921;50.964;6.800;2023-02-15T14:23:19;17.53;;;10.47;;
17604;SDS011;8921;50.964;6.800;2023-02-15T14:25:46;19.60;;;12.47;;
17604;SDS011;8921;50.964;6.800;2023-02-15T14:28:15;20.33;;;12.43;;
17604;SDS011;8921;50.964;6.800;2023-02-15T14:30:46;21.50;;;11.87;;
17604;SDS011;8921;50.964;6.800;2023-02-15T14:35:42;21.67;;;11.90;;
17604;SDS011;8921;50.964;6.800;2023-02-15T14:40:54;18.70;;;11.90;;
17604;SDS011;8921;50.964;6.800;2023-02-15T14:43:45;19.27;;;12.07;;
17604;SDS011;8921;50.964;6.800;2023-02-15T14:46:46;20.73;;;12.87;;
17604;SDS011;8921;50.964;6.800;2023-02-15T14:49:40;21.40;;;13.27;;
17604;SDS011;8921;50.964;6.800;2023-02-15T14:52:08;20.23;;;12.17;;
17604;SDS011;8921;50.964;6.800;2023-02-15T15:02:17;34.97;;;13.73;;
17604;SDS011;8921;50.964;6.800;2023-02-15T15:07:20;19.70;;;12.43;;
17604;SDS011;8921;50.964;6.800;2023-02-15T15:10:02;24.90;;;11.27;;
17604;SDS011;8921;50.964;6.800;2023-02-15T15:15:02;19.37;;;11.87;;
17604;SDS011;8921;50.964;6.800;2023-02-15T15:22:32;26.90;;;11.87;;
17604;SDS011;8921;50.964;6.800;2023-02-15T15:25:01;18.90;;;12.57;;
17604;SDS011;8921;50.964;6.800;2023-02-15T15:44:19;23.13;;;14.07;;
17604;SDS011;8921;50.964;6.800;2023-02-15T15:49:28;24.03;;;13.40;;
17604;SDS011;8921;50.964;6.800;2023-02-15T15:52:01;24.20;;;14.53;;
17604;SDS011;8921;50.964;6.800;2023-02-15T15:54:28;24.30;;;13.27;;
17604;SDS011;8921;50.964;6.800;2023-02-15T15:56:58;21.07;;;12.50;;
17604;SDS011;8921;50.964;6.800;2023-02-15T15:59:26;18.97;;;11.33;;
17604;SDS011;8921;50.964;6.800;2023-02-15T16:01:53;18.50;;;12.10;;
17604;SDS011;8921;50.964;6.800;2023-02-15T16:04:25;19.97;;;13.17;;
17604;SDS011;8921;50.964;6.800;2023-02-15T16:06:52;26.33;;;13.20;;
17604;SDS011;8921;50.964;6.800;2023-02-15T16:09:25;26.27;;;13.80;;
17604;SDS011;8921;50.964;6.800;2023-02-15T16:11:53;28.27;;;13.57;;
17604;SDS011;8921;50.964;6.800;2023-02-15T16:16:58;20.93;;;11.97;;
17604;SDS011;8921;50.964;6.800;2023-02-15T16:19:35;20.77;;;12.90;;
17604;SDS011;8921;50.964;6.800;2023-02-15T16:22:02;27.37;;;14.17;;
17604;SDS011;8921;50.964;6.800;2023-02-15T16:27:03;19.70;;;12.00;;
17604;SDS011;8921;50.964;6.800;2023-02-15T16:29:29;21.40;;;13.00;;
17604;SDS011;8921;50.964;6.800;2023-02-15T16:31:59;21.10;;;13.77;;
17604;SDS011;8921;50.964;6.800;2023-02-15T16:34:26;19.73;;;11.80;;
17604;SDS011;8921;50.964;6.800;2023-02-15T16:37:13;19.47;;;13.43;;
17604;SDS011;8921;50.964;6.800;2023-02-15T16:39:41;20.80;;;12.40;;
17604;SDS011;8921;50.964;6.800;2023-02-15T16:42:10;24.17;;;13.17;;
17604;SDS011;8921;50.964;6.800;2023-02-15T16:44:37;23.00;;;13.30;;
17604;SDS011;8921;50.964;6.800;2023-02-15T16:47:09;21.07;;;12.50;;
17604;SDS011;8921;50.964;6.800;2023-02-15T16:49:34;18.17;;;11.77;;
17604;SDS011;8921;50.964;6.800;2023-02-15T16:52:03;28.83;;;14.97;;
17604;SDS011;8921;50.964;6.800;2023-02-15T16:54:33;25.87;;;12.50;;
17604;SDS011;8921;50.964;6.800;2023-02-15T16:57:02;23.23;;;13.07;;
17604;SDS011;8921;50.964;6.800;2023-02-15T16:59:31;22.17;;;13.90;;
17604;SDS011;8921;50.964;6.800;2023-02-15T17:01:58;25.60;;;14.10;;
17604;SDS011;8921;50.964;6.800;2023-02-15T17:04:30;25.40;;;12.90;;
17604;SDS011;8921;50.964;6.800;2023-02-15T17:07:05;27.67;;;14.70;;
17604;SDS011;8921;50.964;6.800;2023-02-15T17:09:53;32.10;;;18.77;;
17604;SDS011;8921;50.964;6.800;2023-02-15T17:18:04;21.03;;;13.37;;
17604;SDS011;8921;50.964;6.800;2023-02-15T17:20:32;31.20;;;14.70;;
17604;SDS011;8921;50.964;6.800;2023-02-15T17:23:00;24.93;;;15.30;;
17604;SDS011;8921;50.964;6.800;2023-02-15T17:25:44;27.70;;;14.13;;
17604;SDS011;8921;50.964;6.800;2023-02-15T17:28:19;27.30;;;15.50;;
17604;SDS011;8921;50.964;6.800;2023-02-15T17:30:47;23.00;;;12.70;;
17604;SDS011;8921;50.964;6.800;2023-02-15T17:33:19;22.37;;;13.10;;
17604;SDS011;8921;50.964;6.800;2023-02-15T17:36:09;24.90;;;14.53;;